sensor_id;sensor_type;location;lat;lon;timestamp;pressure;altitude;pressure_sealevel;temperature;humidity
7768;BME280;3928;42.626;23.382;2022-11-06T00:00:32;93727.81;;;15.03;68.34
7768;BME280;3928;42.626;23.382;2022-11-06T00:02:59;93737.13;;;15.07;68.07
7768;BME280;3928;42.626;23.382;2022-11-06T00:05:27;93744.50;;;15.16;68.50
7768;BME280;3928;42.626;23.382;2022-11-06T00:08:11;93752.28;;;15.15;68.06
7768;BME280;3928;42.626;23.382;2022-11-06T00:10:38;93747.19;;;15.13;68.31
7768;BME280;3928;42.626;23.382;2022-11-06T00:13:05;93749.16;;;14.88;68.71
7768;BME280;3928;42.626;23.382;2022-11-06T00:15:33;93745.53;;;14.72;69.36
7768;BME280;3928;42.626;23.382;2022-11-06T00:18:00;93743.13;;;14.67;69.91
7768;BME280;3928;42.626;23.382;2022-11-06T00:20:27;93745.69;;;14.69;69.79
7768;BME280;3928;42.626;23.382;2022-11-06T00:22:54;93738.81;;;14.68;69.74
7768;BME280;3928;42.626;23.382;2022-11-06T00:25:20;93743.59;;;14.77;69.53
7768;BME280;3928;42.626;23.382;2022-11-06T00:27:47;93749.13;;;14.68;69.22
7768;BME280;3928;42.626;23.382;2022-11-06T00:30:14;93743.72;;;14.74;69.22
7768;BME280;3928;42.626;23.382;2022-11-06T00:32:42;93734.22;;;14.74;69.53
7768;BME280;3928;42.626;23.382;2022-11-06T00:35:09;93739.19;;;14.79;69.05
7768;BME280;3928;42.626;23.382;2022-11-06T00:37:36;93741.53;;;14.85;69.12
7768;BME280;3928;42.626;23.382;2022-11-06T00:40:04;93742.97;;;14.92;68.75
7768;BME280;3928;42.626;23.382;2022-11-06T00:42:31;93735.91;;;14.96;68.95
7768;BME280;3928;42.626;23.382;2022-11-06T00:44:57;93738.16;;;15.03;68.20
7768;BME280;3928;42.626;23.382;2022-11-06T00:47:24;93726.22;;;15.01;67.91
7768;BME280;3928;42.626;23.382;2022-11-06T00:49:52;93746.44;;;15.11;68.16
7768;BME280;3928;42.626;23.382;2022-11-06T00:52:19;93739.44;;;15.13;67.73
7768;BME280;3928;42.626;23.382;2022-11-06T00:54:46;93736.75;;;15.16;67.76
7768;BME280;3928;42.626;23.382;2022-11-06T00:57:13;93733.25;;;15.17;67.81
7768;BME280;3928;42.626;23.382;2022-11-06T00:59:40;93721.50;;;15.10;67.56
7768;BME280;3928;42.626;23.382;2022-11-06T01:02:06;93739.13;;;15.21;67.50
7768;BME280;3928;42.626;23.382;2022-11-06T01:04:33;93742.53;;;15.21;67.04
7768;BME280;3928;42.626;23.382;2022-11-06T01:07:01;93743.44;;;15.20;67.28
7768;BME280;3928;42.626;23.382;2022-11-06T01:09:28;93737.97;;;15.08;67.31
7768;BME280;3928;42.626;23.382;2022-11-06T01:11:56;93733.97;;;15.01;67.81
7768;BME280;3928;42.626;23.382;2022-11-06T01:14:24;93723.00;;;14.96;68.28
7768;BME280;3928;42.626;23.382;2022-11-06T01:16:51;93732.63;;;14.92;68.24
7768;BME280;3928;42.626;23.382;2022-11-06T01:19:19;93718.00;;;14.91;67.98
7768;BME280;3928;42.626;23.382;2022-11-06T01:21:48;93692.91;;;14.74;69.07
7768;BME280;3928;42.626;23.382;2022-11-06T01:24:18;93712.91;;;14.89;68.72
7768;BME280;3928;42.626;23.382;2022-11-06T01:26:45;93697.56;;;14.66;69.29
7768;BME280;3928;42.626;23.382;2022-11-06T01:29:14;93726.78;;;14.67;70.20
7768;BME280;3928;42.626;23.382;2022-11-06T01:31:42;93667.28;;;14.27;70.41
7768;BME280;3928;42.626;23.382;2022-11-06T01:34:10;93721.06;;;14.60;70.49
7768;BME280;3928;42.626;23.382;2022-11-06T01:36:38;93720.22;;;14.59;70.47
7768;BME280;3928;42.626;23.382;2022-11-06T01:39:07;93718.53;;;14.58;70.17
7768;BME280;3928;42.626;23.382;2022-11-06T01:41:37;93716.97;;;14.54;70.50
7768;BME280;3928;42.626;23.382;2022-11-06T01:44:58;93720.78;;;14.46;70.81
7768;BME280;3928;42.626;23.382;2022-11-06T01:46:52;93715.69;;;14.43;71.41
7768;BME280;3928;42.626;23.382;2022-11-06T01:49:19;93717.72;;;14.36;71.62
7768;BME280;3928;42.626;23.382;2022-11-06T01:51:48;93719.38;;;14.37;71.62
7768;BME280;3928;42.626;23.382;2022-11-06T01:54:16;93713.53;;;14.33;71.77
7768;BME280;3928;42.626;23.382;2022-11-06T01:56:46;93709.19;;;14.34;71.79
7768;BME280;3928;42.626;23.382;2022-11-06T01:59:17;93715.38;;;14.30;72.19
7768;BME280;3928;42.626;23.382;2022-11-06T02:01:45;93705.09;;;14.28;72.80
7768;BME280;3928;42.626;23.382;2022-11-06T02:04:15;93714.59;;;14.28;72.83
7768;BME280;3928;42.626;23.382;2022-11-06T02:06:43;93529.84;;;13.19;72.98
7768;BME280;3928;42.626;23.382;2022-11-06T02:09:10;93712.00;;;14.28;73.29
7768;BME280;3928;42.626;23.382;2022-11-06T02:11:38;93712.06;;;14.26;73.23
7768;BME280;3928;42.626;23.382;2022-11-06T02:14:10;93714.59;;;14.28;73.84
7768;BME280;3928;42.626;23.382;2022-11-06T02:16:45;93715.44;;;14.28;73.74
7768;BME280;3928;42.626;23.382;2022-11-06T02:19:25;93724.78;;;14.31;74.32
7768;BME280;3928;42.626;23.382;2022-11-06T02:22:14;93722.03;;;14.36;73.63
7768;BME280;3928;42.626;23.382;2022-11-06T02:24:58;93705.88;;;14.30;73.54
7768;BME280;3928;42.626;23.382;2022-11-06T02:27:31;93716.03;;;14.35;73.54
7768;BME280;3928;42.626;23.382;2022-11-06T02:30:02;93724.34;;;14.42;73.22
7768;BME280;3928;42.626;23.382;2022-11-06T02:32:34;93720.66;;;14.49;73.65
7768;BME280;3928;42.626;23.382;2022-11-06T02:35:09;93726.59;;;14.51;73.46
7768;BME280;3928;42.626;23.382;2022-11-06T02:37:41;93717.09;;;14.51;74.39
7768;BME280;3928;42.626;23.382;2022-11-06T02:40:11;93717.03;;;14.53;74.42
7768;BME280;3928;42.626;23.382;2022-11-06T02:42:44;93727.31;;;14.54;74.90
7768;BME280;3928;42.626;23.382;2022-11-06T02:45:13;93724.63;;;14.57;75.24
7768;BME280;3928;42.626;23.382;2022-11-06T02:47:43;93710.97;;;14.32;75.50
7768;BME280;3928;42.626;23.382;2022-11-06T02:50:17;93718.91;;;14.27;77.06
7768;BME280;3928;42.626;23.382;2022-11-06T02:52:48;93729.03;;;14.32;76.81
7768;BME280;3928;42.626;23.382;2022-11-06T02:55:20;93728.81;;;14.38;77.18
7768;BME280;3928;42.626;23.382;2022-11-06T02:57:52;93741.06;;;14.33;77.10
7768;BME280;3928;42.626;23.382;2022-11-06T03:00:21;93740.63;;;14.44;77.18
7768;BME280;3928;42.626;23.382;2022-11-06T03:02:54;93734.41;;;14.49;76.76
7768;BME280;3928;42.626;23.382;2022-11-06T03:05:28;93737.53;;;14.57;77.18
7768;BME280;3928;42.626;23.382;2022-11-06T03:08:01;93740.03;;;14.59;76.59
7768;BME280;3928;42.626;23.382;2022-11-06T03:10:36;93732.41;;;14.56;76.74
7768;BME280;3928;42.626;23.382;2022-11-06T03:13:11;93736.03;;;14.52;76.76
7768;BME280;3928;42.626;23.382;2022-11-06T03:15:43;93747.38;;;14.48;77.21
7768;BME280;3928;42.626;23.382;2022-11-06T03:18:16;93729.66;;;14.39;77.34
7768;BME280;3928;42.626;23.382;2022-11-06T03:20:51;93749.06;;;14.49;78.00
7768;BME280;3928;42.626;23.382;2022-11-06T03:23:23;93747.31;;;14.49;79.14
7768;BME280;3928;42.626;23.382;2022-11-06T03:25:55;93747.38;;;14.48;79.02
7768;BME280;3928;42.626;23.382;2022-11-06T03:28:29;93726.09;;;14.41;78.99
7768;BME280;3928;42.626;23.382;2022-11-06T03:30:59;93737.19;;;14.45;80.13
7768;BME280;3928;42.626;23.382;2022-11-06T03:33:31;93747.97;;;14.54;80.36
7768;BME280;3928;42.626;23.382;2022-11-06T03:36:03;93745.31;;;14.56;80.26
7768;BME280;3928;42.626;23.382;2022-11-06T03:38:34;93754.03;;;14.53;80.54
7768;BME280;3928;42.626;23.382;2022-11-06T03:41:06;93762.53;;;14.55;81.52
7768;BME280;3928;42.626;23.382;2022-11-06T03:43:37;93714.94;;;14.19;81.65
7768;BME280;3928;42.626;23.382;2022-11-06T03:46:10;93753.84;;;14.58;81.41
7768;BME280;3928;42.626;23.382;2022-11-06T03:48:41;93751.34;;;14.56;81.42
7768;BME280;3928;42.626;23.382;2022-11-06T03:51:13;93739.31;;;14.55;80.76
7768;BME280;3928;42.626;23.382;2022-11-06T03:53:45;93740.53;;;14.47;81.12
7768;BME280;3928;42.626;23.382;2022-11-06T03:56:18;93737.91;;;14.48;81.32
7768;BME280;3928;42.626;23.382;2022-11-06T03:58:49;93742.28;;;14.46;81.69
7768;BME280;3928;42.626;23.382;2022-11-06T04:01:21;93750.03;;;14.46;81.41
7768;BME280;3928;42.626;23.382;2022-11-06T04:03:54;93743.19;;;14.45;81.08
7768;BME280;3928;42.626;23.382;2022-11-06T04:06:26;93744.75;;;14.49;81.51
7768;BME280;3928;42.626;23.382;2022-11-06T04:08:58;93737.06;;;14.48;81.25
7768;BME280;3928;42.626;23.382;2022-11-06T04:11:45;93737.38;;;14.39;81.28
7768;BME280;3928;42.626;23.382;2022-11-06T04:14:33;93749.75;;;14.30;81.77
7768;BME280;3928;42.626;23.382;2022-11-06T04:17:05;93746.66;;;14.22;82.32
7768;BME280;3928;42.626;23.382;2022-11-06T04:19:32;93756.38;;;14.16;82.68
7768;BME280;3928;42.626;23.382;2022-11-06T04:22:16;93754.25;;;14.03;84.12
7768;BME280;3928;42.626;23.382;2022-11-06T04:24:56;93751.06;;;13.97;85.51
7768;BME280;3928;42.626;23.382;2022-11-06T04:28:04;93752.81;;;13.96;86.32
7768;BME280;3928;42.626;23.382;2022-11-06T04:30:42;93709.19;;;13.68;86.53
7768;BME280;3928;42.626;23.382;2022-11-06T04:33:17;93760.53;;;13.98;86.20
7768;BME280;3928;42.626;23.382;2022-11-06T04:35:53;93736.56;;;13.94;86.20
7768;BME280;3928;42.626;23.382;2022-11-06T04:38:31;93751.47;;;14.10;85.73
7768;BME280;3928;42.626;23.382;2022-11-06T04:41:09;93758.94;;;14.16;85.28
7768;BME280;3928;42.626;23.382;2022-11-06T04:43:43;93762.97;;;14.23;85.13
7768;BME280;3928;42.626;23.382;2022-11-06T04:46:18;93756.16;;;14.22;85.13
7768;BME280;3928;42.626;23.382;2022-11-06T04:48:47;93758.75;;;14.20;85.00
7768;BME280;3928;42.626;23.382;2022-11-06T04:51:17;93757.91;;;14.20;85.90
7768;BME280;3928;42.626;23.382;2022-11-06T04:53:47;93746.19;;;14.13;86.63
7768;BME280;3928;42.626;23.382;2022-11-06T04:56:22;93757.91;;;14.20;86.88
7768;BME280;3928;42.626;23.382;2022-11-06T04:58:49;93770.38;;;14.10;87.26
7768;BME280;3928;42.626;23.382;2022-11-06T05:01:17;93763.56;;;14.08;87.76
7768;BME280;3928;42.626;23.382;2022-11-06T05:03:44;93768.28;;;13.96;88.61
7768;BME280;3928;42.626;23.382;2022-11-06T05:06:11;93779.44;;;13.97;88.96
7768;BME280;3928;42.626;23.382;2022-11-06T05:08:38;93779.63;;;13.92;89.87
7768;BME280;3928;42.626;23.382;2022-11-06T05:11:06;93773.97;;;13.83;90.83
7768;BME280;3928;42.626;23.382;2022-11-06T05:13:33;93782.63;;;13.82;91.86
7768;BME280;3928;42.626;23.382;2022-11-06T05:15:59;93601.75;;;12.55;92.90
7768;BME280;3928;42.626;23.382;2022-11-06T05:18:28;93795.19;;;13.67;93.66
7768;BME280;3928;42.626;23.382;2022-11-06T05:20:58;93790.16;;;13.64;94.14
7768;BME280;3928;42.626;23.382;2022-11-06T05:23:38;93808.47;;;13.80;94.42
7768;BME280;3928;42.626;23.382;2022-11-06T05:26:06;93811.66;;;13.87;94.68
7768;BME280;3928;42.626;23.382;2022-11-06T05:28:33;93802.78;;;13.94;94.42
7768;BME280;3928;42.626;23.382;2022-11-06T05:31:00;93818.06;;;14.00;94.08
7768;BME280;3928;42.626;23.382;2022-11-06T05:33:28;93810.25;;;14.01;94.60
7768;BME280;3928;42.626;23.382;2022-11-06T05:35:55;93805.09;;;14.01;94.19
7768;BME280;3928;42.626;23.382;2022-11-06T05:38:22;93814.09;;;14.13;93.99
7768;BME280;3928;42.626;23.382;2022-11-06T05:40:49;93813.13;;;14.16;94.26
7768;BME280;3928;42.626;23.382;2022-11-06T05:43:16;93814.94;;;14.14;94.13
7768;BME280;3928;42.626;23.382;2022-11-06T05:45:43;93814.69;;;14.20;93.96
7768;BME280;3928;42.626;23.382;2022-11-06T05:48:09;93818.09;;;14.22;93.97
7768;BME280;3928;42.626;23.382;2022-11-06T05:50:38;93831.13;;;14.17;94.94
7768;BME280;3928;42.626;23.382;2022-11-06T05:53:05;93834.50;;;14.19;94.91
7768;BME280;3928;42.626;23.382;2022-11-06T05:55:31;93838.47;;;14.28;94.35
7768;BME280;3928;42.626;23.382;2022-11-06T05:57:58;93847.78;;;14.32;94.36
7768;BME280;3928;42.626;23.382;2022-11-06T06:00:25;93853.38;;;14.43;97.07
7768;BME280;3928;42.626;23.382;2022-11-06T06:02:52;93851.25;;;14.54;94.12
7768;BME280;3928;42.626;23.382;2022-11-06T06:05:18;93854.50;;;14.59;93.47
7768;BME280;3928;42.626;23.382;2022-11-06T06:07:47;93851.66;;;14.66;93.12
7768;BME280;3928;42.626;23.382;2022-11-06T06:10:13;93854.00;;;14.72;93.24
7768;BME280;3928;42.626;23.382;2022-11-06T06:12:40;93853.81;;;14.76;93.01
7768;BME280;3928;42.626;23.382;2022-11-06T06:15:09;93848.72;;;14.75;92.09
7768;BME280;3928;42.626;23.382;2022-11-06T06:17:39;93866.72;;;14.76;92.29
7768;BME280;3928;42.626;23.382;2022-11-06T06:20:07;93869.63;;;14.69;92.34
7768;BME280;3928;42.626;23.382;2022-11-06T06:22:34;93874.13;;;14.63;92.64
7768;BME280;3928;42.626;23.382;2022-11-06T06:25:02;93877.06;;;14.54;93.11
7768;BME280;3928;42.626;23.382;2022-11-06T06:27:29;93867.88;;;14.47;93.76
7768;BME280;3928;42.626;23.382;2022-11-06T06:29:56;93875.31;;;14.55;93.88
7768;BME280;3928;42.626;23.382;2022-11-06T06:32:23;93866.72;;;14.54;93.24
7768;BME280;3928;42.626;23.382;2022-11-06T06:34:50;93884.41;;;14.65;93.11
7768;BME280;3928;42.626;23.382;2022-11-06T06:37:16;93887.66;;;14.70;92.01
7768;BME280;3928;42.626;23.382;2022-11-06T06:39:43;93880.13;;;14.64;92.06
7768;BME280;3928;42.626;23.382;2022-11-06T06:42:11;93889.91;;;14.78;91.51
7768;BME280;3928;42.626;23.382;2022-11-06T06:44:38;93895.84;;;14.80;90.71
7768;BME280;3928;42.626;23.382;2022-11-06T06:47:05;93901.69;;;14.85;90.64
7768;BME280;3928;42.626;23.382;2022-11-06T06:49:32;93905.06;;;14.87;90.78
7768;BME280;3928;42.626;23.382;2022-11-06T06:52:00;93910.78;;;14.95;89.63
7768;BME280;3928;42.626;23.382;2022-11-06T06:54:27;93902.41;;;14.88;87.12
7768;BME280;3928;42.626;23.382;2022-11-06T06:56:53;93902.47;;;14.87;87.16
7768;BME280;3928;42.626;23.382;2022-11-06T06:59:22;93908.34;;;14.90;87.02
7768;BME280;3928;42.626;23.382;2022-11-06T07:01:48;93913.38;;;14.95;87.39
7768;BME280;3928;42.626;23.382;2022-11-06T07:04:15;93915.03;;;14.96;87.19
7768;BME280;3928;42.626;23.382;2022-11-06T07:06:42;93914.78;;;15.02;87.77
7768;BME280;3928;42.626;23.382;2022-11-06T07:09:09;93913.84;;;15.05;87.50
7768;BME280;3928;42.626;23.382;2022-11-06T07:11:35;93918.81;;;15.09;87.41
7768;BME280;3928;42.626;23.382;2022-11-06T07:14:02;93918.16;;;15.04;87.94
7768;BME280;3928;42.626;23.382;2022-11-06T07:16:30;93917.78;;;14.91;89.61
7768;BME280;3928;42.626;23.382;2022-11-06T07:18:58;93907.47;;;14.70;90.01
7768;BME280;3928;42.626;23.382;2022-11-06T07:21:24;93931.75;;;14.87;89.81
7768;BME280;3928;42.626;23.382;2022-11-06T07:23:51;93930.66;;;14.93;89.29
7768;BME280;3928;42.626;23.382;2022-11-06T07:26:18;93934.81;;;14.97;89.05
7768;BME280;3928;42.626;23.382;2022-11-06T07:28:45;93942.31;;;15.03;88.78
7768;BME280;3928;42.626;23.382;2022-11-06T07:31:11;93937.09;;;15.05;87.90
7768;BME280;3928;42.626;23.382;2022-11-06T07:33:40;93941.59;;;15.00;87.71
7768;BME280;3928;42.626;23.382;2022-11-06T07:36:08;93948.22;;;15.07;87.83
7768;BME280;3928;42.626;23.382;2022-11-06T07:38:36;93938.44;;;15.13;87.66
7768;BME280;3928;42.626;23.382;2022-11-06T07:41:05;93947.72;;;15.19;87.57
7768;BME280;3928;42.626;23.382;2022-11-06T07:43:33;93943.94;;;15.28;87.21
7768;BME280;3928;42.626;23.382;2022-11-06T07:46:02;93946.38;;;15.31;86.91
7768;BME280;3928;42.626;23.382;2022-11-06T07:48:29;93949.03;;;15.29;87.04
7768;BME280;3928;42.626;23.382;2022-11-06T07:51:00;93906.25;;;15.00;87.25
7768;BME280;3928;42.626;23.382;2022-11-06T07:53:28;93955.06;;;15.30;87.08
7768;BME280;3928;42.626;23.382;2022-11-06T07:55:55;93956.97;;;15.25;87.65
7768;BME280;3928;42.626;23.382;2022-11-06T07:58:23;93958.69;;;15.24;88.25
7768;BME280;3928;42.626;23.382;2022-11-06T08:00:51;93951.28;;;15.16;88.82
7768;BME280;3928;42.626;23.382;2022-11-06T08:03:18;93945.13;;;15.19;89.82
7768;BME280;3928;42.626;23.382;2022-11-06T08:05:45;93959.31;;;15.31;90.55
7768;BME280;3928;42.626;23.382;2022-11-06T08:08:13;93944.16;;;15.00;91.21
7768;BME280;3928;42.626;23.382;2022-11-06T08:10:40;93972.72;;;15.18;91.11
7768;BME280;3928;42.626;23.382;2022-11-06T08:13:08;93971.56;;;15.26;91.54
7768;BME280;3928;42.626;23.382;2022-11-06T08:15:36;93964.63;;;15.28;91.40
7768;BME280;3928;42.626;23.382;2022-11-06T08:18:03;93967.06;;;15.31;92.05
7768;BME280;3928;42.626;23.382;2022-11-06T08:20:30;93973.41;;;15.44;91.14
7768;BME280;3928;42.626;23.382;2022-11-06T08:22:58;93976.53;;;15.52;90.93
7768;BME280;3928;42.626;23.382;2022-11-06T08:25:27;93977.25;;;15.56;91.03
7768;BME280;3928;42.626;23.382;2022-11-06T08:27:54;93975.50;;;15.56;91.73
7768;BME280;3928;42.626;23.382;2022-11-06T08:30:21;93984.09;;;15.57;92.04
7768;BME280;3928;42.626;23.382;2022-11-06T08:32:48;93990.00;;;15.60;92.43
7768;BME280;3928;42.626;23.382;2022-11-06T08:35:15;93988.28;;;15.61;92.06
7768;BME280;3928;42.626;23.382;2022-11-06T08:37:42;93973.75;;;15.57;92.59
7768;BME280;3928;42.626;23.382;2022-11-06T08:40:10;93965.28;;;15.53;93.11
7768;BME280;3928;42.626;23.382;2022-11-06T08:42:38;93986.00;;;15.73;93.19
7768;BME280;3928;42.626;23.382;2022-11-06T08:45:06;93987.66;;;15.76;92.63
7768;BME280;3928;42.626;23.382;2022-11-06T08:47:33;93994.28;;;15.61;92.94
7768;BME280;3928;42.626;23.382;2022-11-06T08:50:00;93984.34;;;15.50;93.91
7768;BME280;3928;42.626;23.382;2022-11-06T08:52:27;93995.78;;;15.67;94.38
7768;BME280;3928;42.626;23.382;2022-11-06T08:54:53;94003.78;;;15.61;95.16
7768;BME280;3928;42.626;23.382;2022-11-06T08:57:20;93989.41;;;15.54;95.95
7768;BME280;3928;42.626;23.382;2022-11-06T08:59:48;94003.47;;;15.68;96.28
7768;BME280;3928;42.626;23.382;2022-11-06T09:02:15;93999.63;;;15.78;96.85
7768;BME280;3928;42.626;23.382;2022-11-06T09:04:42;94002.59;;;15.90;97.19
7768;BME280;3928;42.626;23.382;2022-11-06T09:07:09;94001.19;;;16.03;96.71
7768;BME280;3928;42.626;23.382;2022-11-06T09:09:36;94007.81;;;16.08;95.98
7768;BME280;3928;42.626;23.382;2022-11-06T09:12:03;93956.25;;;15.84;95.65
7768;BME280;3928;42.626;23.382;2022-11-06T09:14:32;94004.28;;;16.11;96.16
7768;BME280;3928;42.626;23.382;2022-11-06T09:17:00;94009.25;;;16.16;96.10
7768;BME280;3928;42.626;23.382;2022-11-06T09:19:27;94007.25;;;16.22;95.72
7768;BME280;3928;42.626;23.382;2022-11-06T09:21:54;94007.88;;;16.27;94.76
7768;BME280;3928;42.626;23.382;2022-11-06T09:24:21;94007.59;;;16.33;95.18
7768;BME280;3928;42.626;23.382;2022-11-06T09:26:48;94008.13;;;16.42;93.28
7768;BME280;3928;42.626;23.382;2022-11-06T09:29:15;94014.22;;;16.41;93.14
7768;BME280;3928;42.626;23.382;2022-11-06T09:31:41;94008.06;;;16.43;92.92
7768;BME280;3928;42.626;23.382;2022-11-06T09:34:10;94007.03;;;16.47;93.08
7768;BME280;3928;42.626;23.382;2022-11-06T09:36:36;94001.97;;;16.44;93.14
7768;BME280;3928;42.626;23.382;2022-11-06T09:39:03;93997.69;;;16.43;92.60
7768;BME280;3928;42.626;23.382;2022-11-06T09:41:36;94010.16;;;16.54;92.37
7768;BME280;3928;42.626;23.382;2022-11-06T09:44:21;94006.88;;;16.50;92.25
7768;BME280;3928;42.626;23.382;2022-11-06T09:46:52;94012.84;;;16.52;92.66
7768;BME280;3928;42.626;23.382;2022-11-06T09:49:26;94004.84;;;16.57;92.16
7768;BME280;3928;42.626;23.382;2022-11-06T09:51:59;94003.16;;;16.56;91.41
7768;BME280;3928;42.626;23.382;2022-11-06T09:54:31;94004.91;;;16.55;89.97
7768;BME280;3928;42.626;23.382;2022-11-06T09:57:02;94002.69;;;16.48;90.69
7768;BME280;3928;42.626;23.382;2022-11-06T09:59:34;94001.38;;;16.58;97.03
7768;BME280;3928;42.626;23.382;2022-11-06T10:02:01;93985.09;;;16.54;92.46
7768;BME280;3928;42.626;23.382;2022-11-06T10:04:48;94013.31;;;16.81;91.38
7768;BME280;3928;42.626;23.382;2022-11-06T10:07:23;94000.19;;;17.03;92.93
7768;BME280;3928;42.626;23.382;2022-11-06T10:09:52;93996.91;;;17.18;90.73
7768;BME280;3928;42.626;23.382;2022-11-06T10:12:26;93991.16;;;17.30;91.51
7768;BME280;3928;42.626;23.382;2022-11-06T10:15:01;93993.75;;;17.47;88.91
7768;BME280;3928;42.626;23.382;2022-11-06T10:17:41;94001.88;;;17.59;87.56
7768;BME280;3928;42.626;23.382;2022-11-06T10:20:17;94007.25;;;17.73;86.14
7768;BME280;3928;42.626;23.382;2022-11-06T10:22:53;94001.84;;;17.77;85.54
7768;BME280;3928;42.626;23.382;2022-11-06T10:25:34;94002.22;;;17.87;84.24
7768;BME280;3928;42.626;23.382;2022-11-06T10:28:17;94002.09;;;17.90;84.97
7768;BME280;3928;42.626;23.382;2022-11-06T10:30:55;93997.50;;;17.95;84.08
7768;BME280;3928;42.626;23.382;2022-11-06T10:33:32;94000.91;;;17.96;83.92
7768;BME280;3928;42.626;23.382;2022-11-06T10:36:09;94006.66;;;18.02;84.19
7768;BME280;3928;42.626;23.382;2022-11-06T10:38:41;94005.50;;;18.08;83.63
7768;BME280;3928;42.626;23.382;2022-11-06T10:41:15;94005.50;;;18.08;82.49
7768;BME280;3928;42.626;23.382;2022-11-06T10:43:48;94002.16;;;18.06;82.89
7768;BME280;3928;42.626;23.382;2022-11-06T10:46:19;93997.63;;;18.09;84.25
7768;BME280;3928;42.626;23.382;2022-11-06T10:48:50;93998.84;;;18.20;83.68
7768;BME280;3928;42.626;23.382;2022-11-06T10:51:42;94006.63;;;18.20;83.75
7768;BME280;3928;42.626;23.382;2022-11-06T10:54:22;94007.19;;;18.09;80.41
7768;BME280;3928;42.626;23.382;2022-11-06T10:57:03;93993.44;;;17.72;81.92
7768;BME280;3928;42.626;23.382;2022-11-06T10:59:34;94009.94;;;17.71;82.33
7768;BME280;3928;42.626;23.382;2022-11-06T11:02:01;94010.56;;;17.58;83.62
7768;BME280;3928;42.626;23.382;2022-11-06T11:04:31;94006.50;;;17.52;84.58
7768;BME280;3928;42.626;23.382;2022-11-06T11:07:09;93986.59;;;17.16;84.75
7768;BME280;3928;42.626;23.382;2022-11-06T11:09:38;94012.41;;;17.19;85.05
7768;BME280;3928;42.626;23.382;2022-11-06T11:12:19;94010.91;;;17.14;85.65
7768;BME280;3928;42.626;23.382;2022-11-06T11:15:03;94010.16;;;17.12;86.04
7768;BME280;3928;42.626;23.382;2022-11-06T11:17:31;94007.41;;;17.15;87.04
7768;BME280;3928;42.626;23.382;2022-11-06T11:19:58;93982.06;;;17.03;86.47
7768;BME280;3928;42.626;23.382;2022-11-06T11:22:27;94004.63;;;17.19;88.37
7768;BME280;3928;42.626;23.382;2022-11-06T11:24:58;94003.63;;;17.22;87.51
7768;BME280;3928;42.626;23.382;2022-11-06T11:27:26;94003.47;;;17.25;86.02
7768;BME280;3928;42.626;23.382;2022-11-06T11:29:54;93985.56;;;17.20;86.05
7768;BME280;3928;42.626;23.382;2022-11-06T11:32:22;93992.66;;;17.34;86.69
7768;BME280;3928;42.626;23.382;2022-11-06T11:34:52;93993.44;;;17.36;85.63
7768;BME280;3928;42.626;23.382;2022-11-06T11:37:24;93995.88;;;17.39;85.55
7768;BME280;3928;42.626;23.382;2022-11-06T11:39:53;94000.13;;;17.23;84.20
7768;BME280;3928;42.626;23.382;2022-11-06T11:42:23;93997.50;;;17.06;84.55
7768;BME280;3928;42.626;23.382;2022-11-06T11:45:11;93991.03;;;16.95;87.11
7768;BME280;3928;42.626;23.382;2022-11-06T11:47:41;93995.94;;;17.02;86.72
7768;BME280;3928;42.626;23.382;2022-11-06T11:50:26;93995.31;;;16.97;85.73
7768;BME280;3928;42.626;23.382;2022-11-06T11:52:57;93990.28;;;16.93;85.79
7768;BME280;3928;42.626;23.382;2022-11-06T11:55:27;93994.56;;;16.94;84.83
7768;BME280;3928;42.626;23.382;2022-11-06T11:57:56;93993.97;;;17.07;88.24
7768;BME280;3928;42.626;23.382;2022-11-06T12:00:24;93990.34;;;17.28;88.32
7768;BME280;3928;42.626;23.382;2022-11-06T12:02:55;93986.13;;;17.44;84.16
7768;BME280;3928;42.626;23.382;2022-11-06T12:05:23;93981.84;;;17.43;82.33
7768;BME280;3928;42.626;23.382;2022-11-06T12:07:55;93981.53;;;17.49;80.56
7768;BME280;3928;42.626;23.382;2022-11-06T12:10:27;93990.25;;;17.48;82.07
7768;BME280;3928;42.626;23.382;2022-11-06T12:12:55;93978.94;;;17.49;80.75
7768;BME280;3928;42.626;23.382;2022-11-06T12:15:25;93989.25;;;17.51;83.21
7768;BME280;3928;42.626;23.382;2022-11-06T12:17:55;93988.34;;;17.52;83.65
7768;BME280;3928;42.626;23.382;2022-11-06T12:20:25;93988.72;;;17.44;84.31
7768;BME280;3928;42.626;23.382;2022-11-06T12:22:54;93986.88;;;17.46;83.92
7768;BME280;3928;42.626;23.382;2022-11-06T12:25:26;93995.16;;;17.54;84.63
7768;BME280;3928;42.626;23.382;2022-11-06T12:27:58;93989.50;;;17.64;83.21
7768;BME280;3928;42.626;23.382;2022-11-06T12:30:28;93999.81;;;17.65;84.60
7768;BME280;3928;42.626;23.382;2022-11-06T12:33:02;93993.50;;;17.71;82.50
7768;BME280;3928;42.626;23.382;2022-11-06T12:35:33;94000.22;;;17.75;81.89
7768;BME280;3928;42.626;23.382;2022-11-06T12:38:19;94000.22;;;17.75;80.75
7768;BME280;3928;42.626;23.382;2022-11-06T12:40:54;93999.47;;;17.73;81.57
7768;BME280;3928;42.626;23.382;2022-11-06T12:43:28;93980.34;;;17.57;80.52
7768;BME280;3928;42.626;23.382;2022-11-06T12:46:18;93995.00;;;17.58;80.58
7768;BME280;3928;42.626;23.382;2022-11-06T12:51:54;93992.50;;;17.37;81.68
7768;BME280;3928;42.626;23.382;2022-11-06T12:54:41;93988.25;;;17.36;81.23
7768;BME280;3928;42.626;23.382;2022-11-06T12:57:20;93996.09;;;17.35;81.67
7768;BME280;3928;42.626;23.382;2022-11-06T13:00:02;93986.66;;;17.34;82.06
7768;BME280;3928;42.626;23.382;2022-11-06T13:02:46;93991.16;;;17.30;82.37
7768;BME280;3928;42.626;23.382;2022-11-06T13:05:22;93993.75;;;17.47;82.55
7768;BME280;3928;42.626;23.382;2022-11-06T13:08:12;93998.19;;;17.45;81.48
7768;BME280;3928;42.626;23.382;2022-11-06T13:10:49;94001.94;;;17.57;81.62
7768;BME280;3928;42.626;23.382;2022-11-06T13:13:42;94003.34;;;17.64;80.91
7768;BME280;3928;42.626;23.382;2022-11-06T13:16:20;94002.13;;;17.71;80.94
7768;BME280;3928;42.626;23.382;2022-11-06T13:18:55;94009.56;;;17.79;79.72
7768;BME280;3928;42.626;23.382;2022-11-06T13:21:29;93993.78;;;17.65;78.64
7768;BME280;3928;42.626;23.382;2022-11-06T13:24:01;94016.31;;;17.64;79.23
7768;BME280;3928;42.626;23.382;2022-11-06T13:26:37;94017.94;;;17.48;79.77
7768;BME280;3928;42.626;23.382;2022-11-06T13:29:10;94013.50;;;17.33;80.03
7768;BME280;3928;42.626;23.382;2022-11-06T13:31:41;93995.09;;;17.20;80.81